Time;durP1;ratioP1;P1;durP2;ratioP2;P2;SDS_P1;SDS_P2;PMS_P1;PMS_P2;Temp;Humidity;BMP_temperature;BMP_pressure;BME280_temperature;BME280_humidity;BME280_pressure;Samples;Min_cycle;Max_cycle;Signal;HPM_P1;HPM_P2
2021/08/11 00:01:26;;;;;;;8.25;4.50;;;16.50;92.50;;;;;;4863959;29;20046;-84
2021/08/11 00:03:51;;;;;;;8.35;4.95;;;16.50;92.60;;;;;;4863421;29;20130;-84
2021/08/11 00:06:17;;;;;;;8.98;4.85;;;16.40;92.40;;;;;;4863882;29;20045;-85
2021/08/11 00:08:46;;;;;;;6.25;4.38;;;16.40;92.50;;;;;;4864075;29;20068;-84
2021/08/11 00:11:13;;;;;;;7.03;4.57;;;16.40;92.50;;;;;;4863101;29;20073;-84
2021/08/11 00:13:39;;;;;;;7.32;4.72;;;16.40;92.50;;;;;;4863858;29;20509;-84
2021/08/11 00:16:05;;;;;;;7.30;4.53;;;16.30;92.50;;;;;;4863831;29;20144;-84
2021/08/11 00:18:31;;;;;;;7.55;4.40;;;16.30;92.50;;;;;;4863084;29;20057;-84
2021/08/11 00:20:56;;;;;;;6.38;4.68;;;16.30;92.60;;;;;;4863881;29;20056;-84
2021/08/11 00:23:25;;;;;;;7.03;4.38;;;16.30;92.80;;;;;;4863631;29;20061;-84
2021/08/11 00:25:55;;;;;;;9.13;4.68;;;16.20;92.40;;;;;;4862345;29;20065;-84
2021/08/11 00:28:22;;;;;;;6.50;4.43;;;16.20;92.40;;;;;;4863488;29;20060;-85
2021/08/11 00:30:48;;;;;;;6.75;4.72;;;16.20;92.50;;;;;;4863605;29;20054;-84
2021/08/11 00:33:14;;;;;;;8.43;4.50;;;16.20;92.70;;;;;;4862425;29;20482;-84
2021/08/11 00:35:39;;;;;;;6.63;4.40;;;16.10;92.60;;;;;;4863284;29;20144;-85
2021/08/11 00:38:05;;;;;;;8.95;5.05;;;16.10;92.50;;;;;;4862241;29;20081;-84
2021/08/11 00:40:32;;;;;;;6.20;4.43;;;16.10;92.70;;;;;;4862958;29;20053;-84
2021/08/11 00:42:58;;;;;;;6.18;4.05;;;16.00;92.80;;;;;;4863165;29;20049;-85
2021/08/11 00:45:24;;;;;;;6.82;5.13;;;16.00;92.80;;;;;;4862328;29;20052;-84
2021/08/11 00:47:51;;;;;;;7.20;4.75;;;16.00;92.90;;;;;;4863320;29;20140;-84
2021/08/11 00:50:18;;;;;;;8.15;4.72;;;15.90;93.00;;;;;;4863089;29;20053;-84
2021/08/11 00:52:44;;;;;;;8.68;5.20;;;15.90;93.00;;;;;;4862408;29;20128;-84
2021/08/11 00:55:10;;;;;;;9.35;5.03;;;15.90;92.90;;;;;;4862909;29;20140;-85
2021/08/11 00:57:37;;;;;;;8.30;4.80;;;15.90;92.90;;;;;;4863040;29;20050;-84
2021/08/11 01:00:04;;;;;;;6.60;4.53;;;15.80;93.00;;;;;;4862333;29;20053;-84
2021/08/11 01:02:32;;;;;;;7.72;5.00;;;15.80;93.10;;;;;;4863001;29;20045;-84
2021/08/11 01:05:00;;;;;;;7.88;5.03;;;15.80;93.00;;;;;;4862944;29;20073;-85
2021/08/11 01:07:27;;;;;;;7.45;4.75;;;15.80;93.00;;;;;;4861894;29;20064;-85
2021/08/11 01:09:54;;;;;;;7.35;4.90;;;15.70;93.10;;;;;;4862782;29;20053;-85
2021/08/11 01:12:25;;;;;;;7.40;4.78;;;15.70;93.50;;;;;;4862985;29;20053;-85
2021/08/11 01:14:51;;;;;;;8.57;5.05;;;15.70;93.10;;;;;;4862178;29;20089;-86
2021/08/11 01:17:19;;;;;;;6.68;4.60;;;15.60;93.20;;;;;;4862383;29;20050;-85
2021/08/11 01:19:45;;;;;;;8.75;4.93;;;15.70;93.30;;;;;;4862746;29;20084;-85
2021/08/11 01:22:27;;;;;;;7.13;4.97;;;15.60;93.30;;;;;;4861529;29;20057;-85
2021/08/11 01:25:06;;;;;;;7.13;4.75;;;15.60;93.30;;;;;;4862272;29;20061;-85
2021/08/11 01:27:34;;;;;;;7.57;5.20;;;15.50;93.10;;;;;;4861712;29;20578;-85
2021/08/11 01:30:09;;;;;;;8.85;4.80;;;15.50;93.30;;;;;;4862474;29;20527;-85
2021/08/11 01:32:57;;;;;;;6.38;4.35;;;15.50;93.40;;;;;;4862490;29;20514;-85
2021/08/11 01:35:30;;;;;;;8.15;4.47;;;15.50;93.00;;;;;;4861234;29;20486;-85
2021/08/11 01:37:59;;;;;;;6.22;4.13;;;15.50;93.40;;;;;;4862318;29;20422;-84
2021/08/11 01:40:34;;;;;;;6.05;4.32;;;15.40;93.40;;;;;;4862181;29;20069;-84
2021/08/11 01:43:02;;;;;;;7.75;4.40;;;15.40;93.40;;;;;;4861212;29;20062;-84
2021/08/11 01:45:34;;;;;;;5.65;4.13;;;15.40;93.40;;;;;;4862158;29;20069;-85
2021/08/11 01:48:11;;;;;;;8.75;4.88;;;15.40;93.40;;;;;;4862156;29;20060;-84
2021/08/11 01:50:39;;;;;;;7.68;4.25;;;15.30;93.30;;;;;;4861230;29;20483;-84
2021/08/11 01:53:07;;;;;;;7.10;4.45;;;15.30;93.10;;;;;;4861991;29;20156;-84
2021/08/11 01:55:34;;;;;;;6.95;4.55;;;15.30;93.20;;;;;;4860960;29;20476;-84
2021/08/11 01:58:01;;;;;;;7.60;4.68;;;15.20;93.20;;;;;;4862020;29;20125;-85
2021/08/11 02:00:27;;;;;;;7.30;4.78;;;15.20;93.30;;;;;;4861987;29;20053;-84
2021/08/11 02:02:53;;;;;;;6.60;4.70;;;15.20;93.40;;;;;;4860879;29;20097;-84
2021/08/11 02:05:21;;;;;;;7.30;4.78;;;15.20;93.50;;;;;;4861927;29;20057;-85
2021/08/11 02:07:47;;;;;;;6.75;4.60;;;15.10;93.50;;;;;;4861788;29;20554;-84
2021/08/11 02:10:15;;;;;;;6.32;4.45;;;15.20;93.50;;;;;;4860731;29;20108;-84
2021/08/11 02:12:41;;;;;;;7.10;4.38;;;15.10;93.50;;;;;;4861719;29;20499;-84
2021/08/11 02:15:08;;;;;;;7.13;4.57;;;15.10;93.40;;;;;;4861641;29;20069;-85
2021/08/11 02:17:36;;;;;;;7.25;4.50;;;15.10;93.50;;;;;;4860913;29;20058;-85
2021/08/11 02:20:03;;;;;;;6.95;4.40;;;15.10;93.50;;;;;;4861049;29;20499;-85
2021/08/11 02:22:29;;;;;;;6.97;4.10;;;15.10;93.50;;;;;;4861175;29;20060;-84
2021/08/11 02:24:54;;;;;;;7.43;4.40;;;15.00;93.50;;;;;;4860758;29;20061;-85
2021/08/11 02:27:29;;;;;;;6.55;4.47;;;15.00;93.50;;;;;;4861670;29;20501;-85
2021/08/11 02:30:11;;;;;;;6.15;4.25;;;15.00;93.60;;;;;;4861578;29;20089;-84
2021/08/11 02:32:47;;;;;;;6.18;4.45;;;14.90;93.40;;;;;;4860381;29;20062;-84
2021/08/11 02:35:17;;;;;;;8.45;4.50;;;14.90;93.70;;;;;;4861391;29;20077;-84
2021/08/11 02:38:03;;;;;;;7.15;4.60;;;14.90;93.80;;;;;;4860681;29;20128;-84
2021/08/11 02:40:36;;;;;;;6.85;4.63;;;14.90;93.50;;;;;;4861515;29;20061;-84
2021/08/11 02:43:28;;;;;;;7.30;4.75;;;14.90;93.70;;;;;;4861386;29;20571;-84
2021/08/11 02:46:06;;;;;;;6.07;4.15;;;14.80;93.40;;;;;;4861082;29;20050;-85
2021/08/11 02:48:33;;;;;;;6.95;4.40;;;14.80;93.60;;;;;;4861369;29;20049;-84
2021/08/11 02:51:01;;;;;;;6.22;4.53;;;14.80;93.70;;;;;;4861243;29;20050;-85
2021/08/11 02:53:32;;;;;;;7.38;4.82;;;14.80;93.70;;;;;;4860364;29;20050;-84
2021/08/11 02:55:58;;;;;;;7.82;4.97;;;14.80;93.70;;;;;;4861321;29;20128;-85
2021/08/11 02:58:25;;;;;;;7.18;4.63;;;14.80;93.70;;;;;;4861292;29;20051;-84
2021/08/11 03:00:53;;;;;;;7.88;4.88;;;14.70;93.70;;;;;;4860498;29;20512;-85
2021/08/11 03:03:19;;;;;;;6.38;4.57;;;14.70;93.70;;;;;;4861108;29;20127;-84
2021/08/11 03:05:46;;;;;;;6.65;4.32;;;14.70;93.50;;;;;;4860435;29;20121;-84
2021/08/11 03:08:12;;;;;;;6.32;4.60;;;14.70;93.60;;;;;;4861043;29;20056;-85
2021/08/11 03:10:39;;;;;;;6.25;4.32;;;14.60;93.50;;;;;;4861098;29;20050;-84
2021/08/11 03:13:06;;;;;;;6.47;4.38;;;14.60;93.30;;;;;;4860309;29;20124;-84
2021/08/11 03:15:33;;;;;;;6.85;4.80;;;14.50;93.20;;;;;;4860971;29;20045;-84
2021/08/11 03:17:59;;;;;;;7.00;4.93;;;14.60;93.20;;;;;;4861147;29;20434;-84
2021/08/11 03:20:25;;;;;;;7.45;5.10;;;14.50;93.10;;;;;;4860369;29;20049;-85
2021/08/11 03:22:50;;;;;;;7.25;4.82;;;14.50;93.10;;;;;;4860901;29;20371;-84
2021/08/11 03:25:16;;;;;;;8.82;5.10;;;14.50;93.10;;;;;;4860752;29;20498;-84
2021/08/11 03:27:42;;;;;;;7.53;4.70;;;14.50;93.30;;;;;;4860203;29;20065;-84
2021/08/11 03:30:08;;;;;;;8.68;5.25;;;14.50;93.20;;;;;;4860987;29;20054;-84
2021/08/11 03:32:34;;;;;;;7.90;4.97;;;14.40;93.10;;;;;;4862739;29;20057;-84
2021/08/11 03:35:07;;;;;;;;;;;14.40;93.30;;;;;;4863880;29;20057;-84
2021/08/11 03:37:33;;;;;;;10.55;5.25;;;14.30;91.90;;;;;;4864459;29;19940;-84
2021/08/11 03:39:58;;;;;;;7.13;5.10;;;14.30;93.30;;;;;;4864315;29;20077;-84
2021/08/11 03:42:25;;;;;;;7.78;5.50;;;14.30;93.30;;;;;;4863615;29;20140;-84
2021/08/11 03:44:50;;;;;;;8.70;5.88;;;14.40;93.20;;;;;;4864154;29;20054;-84
2021/08/11 03:47:16;;;;;;;8.30;5.65;;;14.30;93.40;;;;;;4864159;29;20060;-84
2021/08/11 03:49:45;;;;;;;8.00;5.47;;;14.30;93.40;;;;;;4863099;29;20479;-84
2021/08/11 03:52:11;;;;;;;8.13;5.32;;;14.30;93.40;;;;;;4864103;29;20053;-84
2021/08/11 03:54:36;;;;;;;8.80;6.18;;;14.30;93.50;;;;;;4864125;29;20125;-84
2021/08/11 03:57:02;;;;;;;7.78;5.55;;;14.30;93.60;;;;;;4863475;29;20081;-84
2021/08/11 03:59:28;;;;;;;10.38;5.82;;;14.30;93.60;;;;;;4864070;29;20109;-84
2021/08/11 04:01:54;;;;;;;7.43;5.68;;;14.30;93.60;;;;;;4863368;29;20057;-85
2021/08/11 04:04:20;;;;;;;8.13;5.75;;;14.20;93.50;;;;;;4863629;29;20091;-85
2021/08/11 04:06:46;;;;;;;9.00;5.68;;;14.30;93.70;;;;;;4863826;29;20065;-84
2021/08/11 04:09:12;;;;;;;8.43;5.65;;;14.30;93.70;;;;;;4863127;29;20057;-85
2021/08/11 04:11:38;;;;;;;8.27;5.70;;;14.20;93.70;;;;;;4863941;29;20050;-84
2021/08/11 04:14:04;;;;;;;9.77;6.40;;;14.20;93.60;;;;;;4863902;29;20053;-84
2021/08/11 04:16:30;;;;;;;8.25;5.75;;;14.20;93.60;;;;;;4863107;29;20097;-83
2021/08/11 04:18:55;;;;;;;8.10;5.45;;;14.20;93.70;;;;;;4863677;29;20117;-84
2021/08/11 04:21:21;;;;;;;8.93;5.85;;;14.20;93.70;;;;;;4863583;29;20057;-84
2021/08/11 04:23:56;;;;;;;8.65;5.40;;;14.20;93.70;;;;;;4862415;29;20562;-84
2021/08/11 04:26:24;;;;;;;8.75;5.72;;;14.20;93.50;;;;;;4863417;29;20053;-84
2021/08/11 04:28:55;;;;;;;8.00;6.05;;;14.20;93.50;;;;;;4863223;29;20498;-83
2021/08/11 04:31:27;;;;;;;9.75;5.90;;;14.10;93.70;;;;;;4862477;29;20083;-84
2021/08/11 04:33:58;;;;;;;8.52;5.88;;;14.10;93.50;;;;;;4863090;29;20056;-84
2021/08/11 04:36:25;;;;;;;9.52;6.20;;;14.10;93.40;;;;;;4863115;29;20466;-84
2021/08/11 04:39:08;;;;;;;9.48;6.40;;;14.10;93.50;;;;;;4862336;29;20069;-84
2021/08/11 04:41:34;;;;;;;10.02;6.00;;;14.00;93.30;;;;;;4863191;29;20109;-85
2021/08/11 04:44:00;;;;;;;8.90;5.68;;;14.00;93.30;;;;;;4862706;29;20049;-84
2021/08/11 04:46:29;;;;;;;9.68;5.63;;;14.10;93.40;;;;;;4861943;29;20081;-84
2021/08/11 04:48:55;;;;;;;11.02;6.28;;;14.00;92.90;;;;;;4862948;29;20129;-85
2021/08/11 04:51:21;;;;;;;10.75;6.47;;;14.00;93.00;;;;;;4862334;29;20513;-84
2021/08/11 04:53:46;;;;;;;8.77;5.70;;;14.00;93.20;;;;;;4862843;29;20121;-84
2021/08/11 04:56:12;;;;;;;10.18;6.20;;;14.00;93.10;;;;;;4862834;29;20388;-85
2021/08/11 04:58:38;;;;;;;10.07;6.03;;;14.00;93.10;;;;;;4862170;29;20061;-84
2021/08/11 05:01:04;;;;;;;8.27;5.95;;;14.00;93.20;;;;;;4862904;29;20049;-85
2021/08/11 05:03:35;;;;;;;9.52;6.05;;;14.00;93.10;;;;;;4862741;29;20105;-85
2021/08/11 05:06:00;;;;;;;9.30;6.05;;;14.00;93.00;;;;;;4862003;29;20097;-84
2021/08/11 05:08:26;;;;;;;9.10;6.13;;;14.00;93.20;;;;;;4862726;29;20439;-85
2021/08/11 05:10:52;;;;;;;8.40;5.60;;;14.00;93.30;;;;;;4862845;29;20101;-85
2021/08/11 05:13:17;;;;;;;8.70;6.43;;;14.00;93.00;;;;;;4861852;29;20090;-85
2021/08/11 05:15:43;;;;;;;9.05;5.88;;;14.00;93.20;;;;;;4862584;29;20050;-84
2021/08/11 05:18:08;;;;;;;9.77;5.93;;;14.00;93.20;;;;;;4862569;29;20057;-85
2021/08/11 05:20:34;;;;;;;9.02;6.32;;;14.00;93.10;;;;;;4861884;29;20073;-85
2021/08/11 05:23:01;;;;;;;10.23;6.05;;;14.00;93.10;;;;;;4862586;29;20049;-85
2021/08/11 05:25:27;;;;;;;10.80;6.65;;;14.00;93.30;;;;;;4862310;29;20057;-84
2021/08/11 05:27:52;;;;;;;9.95;6.72;;;14.10;93.00;;;;;;4861367;29;20053;-85
2021/08/11 05:30:18;;;;;;;9.50;6.35;;;14.00;93.10;;;;;;4862560;29;20057;-84
2021/08/11 05:32:44;;;;;;;8.32;6.10;;;14.10;93.20;;;;;;4862484;29;20077;-85
2021/08/11 05:35:09;;;;;;;8.55;6.45;;;14.00;93.20;;;;;;4861523;29;20057;-84
2021/08/11 05:37:37;;;;;;;9.75;5.78;;;14.10;93.20;;;;;;4862077;29;20058;-85
2021/08/11 05:40:03;;;;;;;9.30;6.30;;;14.10;93.00;;;;;;4862283;29;20090;-85
2021/08/11 05:42:29;;;;;;;8.40;6.13;;;14.00;93.00;;;;;;4861056;29;20054;-84
2021/08/11 05:44:55;;;;;;;9.57;6.00;;;14.00;93.00;;;;;;4862184;29;20514;-85
2021/08/11 05:47:20;;;;;;;8.00;5.80;;;14.10;92.90;;;;;;4861914;29;20052;-84
2021/08/11 05:49:46;;;;;;;8.77;5.57;;;14.10;92.90;;;;;;4860056;29;20049;-85
2021/08/11 05:52:12;;;;;;;8.98;6.10;;;14.00;92.80;;;;;;4861859;29;20105;-85
2021/08/11 05:54:38;;;;;;;8.68;6.07;;;14.00;93.00;;;;;;4860074;29;20491;-85
2021/08/11 05:57:04;;;;;;;9.27;6.40;;;14.10;93.00;;;;;;4861808;29;20565;-85
2021/08/11 05:59:31;;;;;;;11.15;8.43;;;14.00;92.90;;;;;;4862012;29;20049;-85
2021/08/11 06:01:57;;;;;;;9.73;6.28;;;14.10;92.90;;;;;;4861555;29;20140;-84
2021/08/11 06:04:23;;;;;;;10.32;6.10;;;14.10;92.70;;;;;;4861874;29;20088;-84
2021/08/11 06:06:51;;;;;;;13.48;8.93;;;14.10;92.90;;;;;;4861892;29;20049;-84
2021/08/11 06:09:16;;;;;;;9.13;6.38;;;14.10;93.20;;;;;;4860877;29;20064;-84
2021/08/11 06:11:42;;;;;;;9.52;6.72;;;14.10;93.10;;;;;;4862012;29;20050;-84
2021/08/11 06:14:08;;;;;;;13.82;10.30;;;14.20;92.90;;;;;;4861681;29;20550;-84
2021/08/11 06:16:33;;;;;;;14.18;8.48;;;14.20;93.40;;;;;;4860959;29;20053;-84
2021/08/11 06:18:59;;;;;;;9.35;6.70;;;14.20;93.50;;;;;;4861864;29;20076;-84
2021/08/11 06:21:26;;;;;;;12.70;8.65;;;14.20;93.20;;;;;;4861548;29;20128;-84
2021/08/11 06:23:52;;;;;;;17.40;9.75;;;14.30;93.60;;;;;;4860740;29;20053;-84
2021/08/11 06:26:19;;;;;;;14.82;9.80;;;14.40;93.80;;;;;;4861185;29;20053;-83
2021/08/11 06:28:45;;;;;;;14.65;9.82;;;14.50;94.20;;;;;;4861594;29;20411;-84
2021/08/11 06:31:14;;;;;;;13.32;8.88;;;14.60;94.30;;;;;;4860942;29;20124;-83
2021/08/11 06:33:40;;;;;;;13.02;9.32;;;14.80;94.40;;;;;;4861525;29;20053;-84
2021/08/11 06:36:05;;;;;;;15.35;10.13;;;14.90;94.20;;;;;;4861283;29;20049;-84
2021/08/11 06:38:32;;;;;;;13.32;9.77;;;15.00;94.30;;;;;;4860329;29;20105;-84
2021/08/11 06:40:57;;;;;;;12.52;9.00;;;15.10;94.20;;;;;;4861344;29;20058;-84
2021/08/11 06:43:23;;;;;;;14.65;8.98;;;15.20;93.90;;;;;;4861315;29;20063;-83
2021/08/11 06:45:49;;;;;;;13.40;7.60;;;15.30;93.70;;;;;;4860441;29;20050;-83
2021/08/11 06:48:14;;;;;;;11.38;7.13;;;15.40;93.20;;;;;;4861501;29;20078;-83
2021/08/11 06:50:40;;;;;;;14.20;9.18;;;15.40;93.10;;;;;;4860997;29;20501;-83
2021/08/11 06:53:06;;;;;;;11.80;7.45;;;15.50;93.30;;;;;;4860784;29;20143;-84
2021/08/11 06:55:32;;;;;;;13.68;9.10;;;15.50;93.10;;;;;;4861158;29;20050;-84
2021/08/11 06:57:57;;;;;;;14.13;8.73;;;15.60;93.20;;;;;;4860374;29;20464;-84
2021/08/11 07:00:23;;;;;;;13.82;8.70;;;15.60;93.30;;;;;;4861143;29;20065;-84
2021/08/11 07:02:49;;;;;;;14.38;8.23;;;15.70;93.30;;;;;;4861084;29;20084;-83
2021/08/11 07:05:15;;;;;;;11.73;7.95;;;15.80;93.20;;;;;;4860426;29;20565;-84
2021/08/11 07:07:41;;;;;;;12.82;8.38;;;15.90;93.10;;;;;;4864643;29;20093;-84
2021/08/11 07:10:10;;;;;;;13.43;8.50;;;16.00;93.30;;;;;;4863762;29;20057;-84
2021/08/11 07:12:37;;;;;;;13.52;8.25;;;16.10;93.30;;;;;;4863245;29;20113;-84
2021/08/11 07:15:07;;;;;;;15.55;8.73;;;16.20;93.20;;;;;;4864435;29;20144;-84
2021/08/11 07:17:33;;;;;;;12.38;8.82;;;16.30;93.40;;;;;;4864559;29;20505;-84
2021/08/11 07:19:58;;;;;;;12.40;7.65;;;16.40;93.30;;;;;;4863887;29;20069;-83
2021/08/11 07:22:24;;;;;;;12.40;7.97;;;16.50;93.10;;;;;;4864622;29;20098;-83
2021/08/11 07:24:50;;;;;;;13.85;7.95;;;16.60;93.00;;;;;;4864436;29;20117;-85
2021/08/11 07:27:16;;;;;;;17.23;8.93;;;16.70;92.90;;;;;;4863887;29;20137;-84
2021/08/11 07:29:44;;;;;;;13.27;8.65;;;16.80;92.70;;;;;;4864466;29;20081;-84
2021/08/11 07:32:10;;;;;;;11.48;7.97;;;16.90;92.70;;;;;;4864837;29;20054;-84
2021/08/11 07:34:36;;;;;;;15.25;7.75;;;17.00;92.70;;;;;;4863392;29;20411;-84
2021/08/11 07:37:02;;;;;;;11.75;7.35;;;17.10;92.60;;;;;;4864306;29;20045;-84
2021/08/11 07:39:28;;;;;;;12.00;7.78;;;17.30;92.30;;;;;;4864386;29;20065;-83
2021/08/11 07:41:54;;;;;;;10.75;7.65;;;17.40;92.30;;;;;;4863634;29;20060;-85
2021/08/11 07:44:19;;;;;;;11.63;7.95;;;17.40;92.10;;;;;;4864180;29;20503;-83
2021/08/11 07:46:45;;;;;;;13.75;7.40;;;17.50;91.90;;;;;;4864112;29;20444;-84
2021/08/11 07:49:11;;;;;;;12.77;7.53;;;17.60;91.80;;;;;;4863290;29;20085;-86
2021/08/11 07:51:37;;;;;;;14.32;8.27;;;17.70;91.60;;;;;;4864147;29;20481;-83
2021/08/11 07:54:03;;;;;;;11.38;7.97;;;17.70;91.50;;;;;;4863162;29;20152;-85
2021/08/11 07:56:28;;;;;;;13.57;8.35;;;17.80;91.30;;;;;;4864269;29;20077;-86
2021/08/11 07:58:54;;;;;;;12.05;7.53;;;17.80;91.20;;;;;;4864118;29;20479;-84
2021/08/11 08:01:19;;;;;;;13.23;8.40;;;17.90;91.20;;;;;;4863085;29;20376;-84
2021/08/11 08:03:45;;;;;;;15.07;8.27;;;17.90;91.20;;;;;;4863868;29;20054;-84
2021/08/11 08:06:11;;;;;;;13.13;8.73;;;18.00;91.30;;;;;;4863771;29;20054;-84
2021/08/11 08:08:36;;;;;;;12.57;8.18;;;18.00;91.30;;;;;;4863097;29;20057;-84
2021/08/11 08:11:02;;;;;;;14.70;8.30;;;18.10;91.30;;;;;;4864028;29;20414;-84
2021/08/11 08:13:28;;;;;;;13.05;7.82;;;18.10;91.30;;;;;;4863750;29;20058;-84
2021/08/11 08:15:54;;;;;;;13.15;7.28;;;18.20;91.20;;;;;;4863168;29;20451;-83
2021/08/11 08:18:22;;;;;;;14.30;7.97;;;18.20;91.10;;;;;;4862860;29;20546;-84
2021/08/11 08:20:53;;;;;;;13.05;8.07;;;18.30;91.10;;;;;;4863565;29;20061;-84
2021/08/11 08:23:20;;;;;;;12.20;7.28;;;18.30;91.10;;;;;;4862773;29;20447;-86
2021/08/11 08:25:47;;;;;;;11.15;7.45;;;18.40;90.90;;;;;;4863027;29;20182;-84
2021/08/11 08:28:13;;;;;;;12.52;7.22;;;18.50;90.90;;;;;;4863588;29;20600;-84
2021/08/11 08:30:39;;;;;;;12.18;7.28;;;18.60;91.00;;;;;;4862415;29;20144;-85
2021/08/11 08:33:05;;;;;;;10.68;6.43;;;18.60;90.80;;;;;;4863496;29;20049;-85
2021/08/11 08:35:30;;;;;;;12.07;7.07;;;18.70;90.70;;;;;;4863165;29;20049;-85
2021/08/11 08:37:56;;;;;;;11.73;6.55;;;18.80;90.60;;;;;;4862855;29;20117;-82
2021/08/11 08:40:29;;;;;;;11.13;6.55;;;18.90;90.40;;;;;;4863159;29;20440;-83
2021/08/11 08:42:55;;;;;;;10.75;6.15;;;19.00;90.20;;;;;;4863478;29;20533;-86
2021/08/11 08:45:20;;;;;;;10.38;6.05;;;19.00;90.10;;;;;;4862588;29;20077;-85
2021/08/11 08:47:47;;;;;;;13.52;6.72;;;19.10;90.00;;;;;;4863169;29;20054;-83
2021/08/11 08:50:19;;;;;;;12.80;6.38;;;19.20;89.60;;;;;;4862886;29;20080;-83
2021/08/11 08:52:45;;;;;;;12.85;6.22;;;19.20;89.60;;;;;;4863234;29;20092;-84
2021/08/11 08:55:11;;;;;;;12.55;6.80;;;19.20;89.60;;;;;;4863036;29;20057;-85
2021/08/11 08:57:37;;;;;;;10.82;6.60;;;19.30;89.40;;;;;;4862310;29;20586;-83
2021/08/11 09:00:08;;;;;;;11.43;6.13;;;19.30;89.60;;;;;;4863076;29;20498;-84
2021/08/11 09:02:38;;;;;;;12.57;5.65;;;19.30;89.10;;;;;;4862932;29;20049;-84
2021/08/11 09:05:09;;;;;;;12.20;5.72;;;19.40;89.40;;;;;;4862249;29;20071;-85
2021/08/11 09:07:35;;;;;;;8.95;5.53;;;19.40;89.10;;;;;;4862692;29;20495;-84
2021/08/11 09:10:19;;;;;;;12.15;6.68;;;19.50;89.20;;;;;;4862909;29;20058;-84
2021/08/11 09:12:46;;;;;;;12.07;6.32;;;19.50;89.10;;;;;;4861796;29;20128;-86
2021/08/11 09:15:33;;;;;;;10.68;6.43;;;19.60;89.00;;;;;;4862738;29;20087;-84
2021/08/11 09:18:19;;;;;;;9.20;5.85;;;19.60;88.90;;;;;;4862492;29;20080;-85
2021/08/11 09:21:11;;;;;;;13.48;5.55;;;19.70;88.70;;;;;;4861709;29;20060;-84
2021/08/11 09:23:42;;;;;;;11.50;5.30;;;19.80;89.20;;;;;;4862584;29;20054;-84
2021/08/11 09:26:10;;;;;;;10.82;5.82;;;19.80;88.90;;;;;;4861302;29;20061;-84
2021/08/11 09:28:41;;;;;;;12.52;5.90;;;19.90;88.60;;;;;;4862474;29;20556;-84
2021/08/11 09:31:30;;;;;;;11.55;5.93;;;19.90;88.20;;;;;;4862568;29;20053;-84
2021/08/11 09:34:01;;;;;;;10.88;5.60;;;20.00;88.30;;;;;;4861633;29;20057;-84
2021/08/11 09:36:39;;;;;;;11.52;5.47;;;20.10;88.30;;;;;;4862383;29;20395;-84
2021/08/11 09:39:05;;;;;;;11.68;5.10;;;20.10;88.10;;;;;;4862501;29;20406;-84
2021/08/11 09:41:35;;;;;;;14.40;5.72;;;20.20;88.00;;;;;;4861225;29;20057;-83
2021/08/11 09:44:05;;;;;;;9.20;5.35;;;20.20;87.80;;;;;;4861916;29;20064;-84
2021/08/11 09:46:32;;;;;;;11.88;5.50;;;20.30;87.70;;;;;;4862174;29;20050;-84
2021/08/11 09:48:58;;;;;;;11.57;5.43;;;20.30;87.30;;;;;;4861819;29;20136;-83
2021/08/11 09:51:23;;;;;;;9.20;4.75;;;20.30;86.60;;;;;;4862280;29;20057;-85
2021/08/11 09:53:49;;;;;;;9.18;4.85;;;20.40;87.10;;;;;;4861371;29;20057;-84
2021/08/11 09:56:15;;;;;;;10.90;5.28;;;20.40;86.00;;;;;;4862026;29;20053;-84
2021/08/11 09:58:47;;;;;;;8.05;4.80;;;20.40;86.00;;;;;;4861721;29;20057;-84
2021/08/11 10:01:16;;;;;;;10.25;4.60;;;20.50;85.90;;;;;;4861390;29;20101;-84
2021/08/11 10:04:01;;;;;;;8.88;4.53;;;20.50;85.90;;;;;;4861423;29;20136;-83
2021/08/11 10:06:28;;;;;;;11.43;4.70;;;20.60;86.30;;;;;;4863431;29;20086;-83
2021/08/11 10:08:55;;;;;;;11.18;4.90;;;20.70;86.40;;;;;;4861669;29;20107;-84
2021/08/11 10:11:41;;;;;;;10.80;4.40;;;20.80;85.20;;;;;;4861748;29;20137;-83
2021/08/11 10:14:09;;;;;;;9.07;4.80;;;20.90;83.40;;;;;;4861840;29;20054;-84
2021/08/11 10:16:35;;;;;;;9.82;4.50;;;20.90;82.80;;;;;;4861046;29;20132;-85
2021/08/11 10:19:09;;;;;;;9.30;4.55;;;21.00;83.30;;;;;;4861517;29;20054;-84
2021/08/11 10:21:53;;;;;;;9.32;4.70;;;21.10;83.30;;;;;;4861512;29;20053;-84
2021/08/11 10:24:19;;;;;;;8.65;4.53;;;21.20;82.60;;;;;;4861230;29;20050;-85
2021/08/11 10:26:48;;;;;;;11.35;4.78;;;21.30;82.90;;;;;;4861760;29;20052;-84
2021/08/11 10:29:15;;;;;;;9.48;4.70;;;21.40;83.00;;;;;;4861019;29;20056;-85
2021/08/11 10:31:40;;;;;;;8.90;4.53;;;21.50;83.50;;;;;;4861570;29;20065;-86
2021/08/11 10:34:10;;;;;;;8.02;4.20;;;21.50;82.50;;;;;;4861338;29;20065;-85
2021/08/11 10:36:40;;;;;;;8.02;4.15;;;21.60;82.70;;;;;;4860691;29;20286;-85
2021/08/11 10:39:05;;;;;;;8.32;4.30;;;21.70;82.60;;;;;;4861271;29;20550;-84
2021/08/11 10:41:34;;;;;;;10.13;4.50;;;21.70;82.00;;;;;;4860698;29;20109;-84
2021/08/11 10:44:01;;;;;;;11.10;4.43;;;21.80;81.30;;;;;;4860452;29;20144;-86
2021/08/11 10:46:42;;;;;;;11.07;4.80;;;21.90;81.30;;;;;;4861308;29;20057;-84
2021/08/11 10:49:16;;;;;;;12.23;4.60;;;22.00;81.20;;;;;;4861125;29;20140;-85
2021/08/11 10:51:44;;;;;;;11.05;4.43;;;22.00;82.10;;;;;;4860527;29;20125;-85
2021/08/11 10:54:10;;;;;;;12.93;4.68;;;22.10;81.40;;;;;;4861112;29;20053;-85
2021/08/11 10:56:54;;;;;;;9.60;4.97;;;22.10;79.90;;;;;;4861295;29;20049;-86
2021/08/11 10:59:23;;;;;;;8.13;4.40;;;22.10;79.00;;;;;;4860874;29;20056;-85
2021/08/11 11:01:51;;;;;;;8.02;4.03;;;22.20;80.10;;;;;;4860831;29;20522;-84
2021/08/11 11:04:35;;;;;;;8.27;4.35;;;22.30;80.30;;;;;;4860287;29;20251;-84
2021/08/11 11:07:12;;;;;;;9.75;4.22;;;22.30;80.80;;;;;;4861018;29;20057;-85
2021/08/11 11:09:43;;;;;;;8.30;4.57;;;22.40;80.80;;;;;;4861052;29;20053;-84
2021/08/11 11:12:18;;;;;;;9.70;4.30;;;22.40;80.40;;;;;;4860323;29;20046;-87
2021/08/11 11:14:44;;;;;;;7.97;4.00;;;22.40;78.70;;;;;;4861123;29;20136;-85
2021/08/11 11:17:11;;;;;;;9.52;4.28;;;22.50;79.00;;;;;;4861167;29;20057;-84
2021/08/11 11:22:41;;;;;;;9.63;4.50;;;22.60;78.30;;;;;;4861119;29;20144;-84
2021/08/11 11:25:08;;;;;;;10.40;4.15;;;22.60;79.40;;;;;;4860051;29;20065;-83
2021/08/11 11:28:01;;;;;;;6.55;4.03;;;22.70;77.60;;;;;;4858780;29;20069;-84
2021/08/11 11:30:27;;;;;;;8.75;3.95;;;22.70;76.30;;;;;;4854478;29;20096;-83
2021/08/11 11:33:13;;;;;;;13.07;4.07;;;22.70;77.60;;;;;;4860136;29;20495;-83
2021/08/11 11:35:39;;;;;;;8.30;3.97;;;22.80;77.60;;;;;;4848056;29;20472;-86
2021/08/11 11:38:08;;;;;;;7.30;3.50;;;22.90;77.80;;;;;;4860904;29;20128;-87
2021/08/11 11:40:53;;;;;;;6.60;3.53;;;22.90;77.70;;;;;;4860247;29;20060;-87
2021/08/11 11:43:28;;;;;;;7.30;3.20;;;22.90;76.30;;;;;;4860890;29;20057;-86
2021/08/11 11:45:55;;;;;;;8.73;3.47;;;23.00;75.80;;;;;;4860975;29;20055;-88
2021/08/11 11:48:21;;;;;;;7.30;3.50;;;23.10;77.10;;;;;;4860239;29;20057;-85
2021/08/11 11:51:03;;;;;;;6.72;3.13;;;23.20;76.00;;;;;;4860916;29;20077;-89
2021/08/11 11:53:34;;;;;;;10.15;3.42;;;23.30;76.40;;;;;;4861979;29;20058;-86
2021/08/11 11:56:14;;;;;;;8.45;3.42;;;23.30;75.90;;;;;;4864630;29;20053;-87
2021/08/11 11:58:45;;;;;;;8.50;3.22;;;23.40;75.10;;;;;;4864329;29;20177;-85
2021/08/11 12:01:12;;;;;;;7.40;3.65;;;23.50;74.60;;;;;;4863322;29;20057;-86
2021/08/11 12:03:46;;;;;;;6.80;3.22;;;23.50;74.20;;;;;;4864004;29;20192;-84
2021/08/11 12:06:12;;;;;;;8.30;3.17;;;23.60;73.90;;;;;;4863900;29;20049;-88
2021/08/11 12:08:38;;;;;;;8.93;2.90;;;23.70;74.50;;;;;;4863171;29;20133;-87
2021/08/11 12:11:13;;;;;;;8.10;2.97;;;23.70;73.30;;;;;;4863730;29;20491;-84
2021/08/11 12:13:50;;;;;;;8.00;3.03;;;23.80;72.40;;;;;;4863728;29;20471;-85
2021/08/11 12:16:17;;;;;;;7.82;3.47;;;23.80;74.10;;;;;;4862859;29;20121;-87
2021/08/11 12:18:46;;;;;;;6.55;3.13;;;23.90;74.30;;;;;;4863770;29;20106;-85
2021/08/11 12:21:16;;;;;;;7.80;3.40;;;23.90;74.00;;;;;;4863822;29;20105;-85
2021/08/11 12:23:43;;;;;;;6.47;3.28;;;24.00;72.60;;;;;;4863106;29;20077;-84
2021/08/11 12:26:16;;;;;;;7.22;3.05;;;24.00;72.60;;;;;;4863651;29;20061;-85
2021/08/11 12:28:49;;;;;;;6.45;2.90;;;24.00;73.40;;;;;;4863133;29;20057;-87
2021/08/11 12:31:24;;;;;;;7.97;2.58;;;24.00;74.50;;;;;;4863966;29;20513;-86
2021/08/11 12:33:57;;;;;;;8.60;2.90;;;24.10;72.90;;;;;;4863621;29;20050;-86
2021/08/11 12:36:26;;;;;;;8.23;2.88;;;24.10;71.70;;;;;;4863196;29;20122;-85
2021/08/11 12:39:07;;;;;;;5.13;2.58;;;24.10;71.00;;;;;;4863580;29;20057;-87
2021/08/11 12:41:35;;;;;;;7.45;2.80;;;24.10;72.40;;;;;;4863496;29;20053;-85
2021/08/11 12:44:20;;;;;;;6.63;2.80;;;24.10;73.20;;;;;;4862386;29;20137;-86
2021/08/11 12:46:45;;;;;;;4.93;2.75;;;24.20;72.70;;;;;;4863320;29;20050;-86
2021/08/11 12:49:29;;;;;;;6.60;2.60;;;24.20;72.00;;;;;;4862988;29;20109;-86
2021/08/11 12:52:04;;;;;;;5.60;2.50;;;24.20;71.50;;;;;;4863251;29;20057;-85
2021/08/11 12:54:55;;;;;;;7.28;2.40;;;24.20;71.60;;;;;;4863097;29;20045;-85